Time;durP1;ratioP1;P1;durP2;ratioP2;P2;SDS_P1;SDS_P2;PMS_P1;PMS_P2;Temp;Humidity;BMP_temperature;BMP_pressure;BME280_temperature;BME280_humidity;BME280_pressure;Samples;Min_cycle;Max_cycle;Signal;HPM_P1;HPM_P2
2023/04/18 00:00:06;;;;;;;;;69.00;52.75;;;;;11.55;65.05;101681.25;4752126;29;45475;-58
2023/04/18 00:02:32;;;;;;;;;58.75;47.25;;;;;11.50;65.29;101689.25;4751566;29;48390;-59
2023/04/18 00:04:57;;;;;;;;;67.40;53.20;;;;;11.40;65.72;101673.06;4753143;29;45375;-58
2023/04/18 00:07:24;;;;;;;;;65.50;49.50;;;;;11.22;66.12;101666.09;4751790;29;45646;-57
2023/04/18 00:09:49;;;;;;;;;62.75;50.00;;;;;11.35;65.63;101686.53;4753041;29;45421;-59
2023/04/18 00:12:16;;;;;;;;;63.50;49.50;;;;;11.29;66.09;101677.19;4752910;29;45968;-59
2023/04/18 00:14:42;;;;;;;;;63.50;49.50;;;;;11.27;66.23;101676.53;4736962;29;45362;-59
2023/04/18 00:17:08;;;;;;;;;69.00;52.50;;;;;11.22;66.03;101665.25;4751808;29;45417;-57
2023/04/18 00:19:34;;;;;;;;;67.25;50.75;;;;;11.12;65.71;101651.81;4753227;29;45283;-59
2023/04/18 00:21:59;;;;;;;;;67.25;52.00;;;;;11.22;65.81;101674.34;4752909;29;46831;-58
2023/04/18 00:24:25;;;;;;;;;71.50;53.00;;;;;10.98;65.67;101640.69;4736715;29;45478;-58
2023/04/18 00:26:50;;;;;;;;;67.00;53.00;;;;;11.23;66.31;101680.69;4736329;29;45333;-59
2023/04/18 00:29:16;;;;;;;;;68.75;52.75;;;;;11.20;65.71;101678.34;4751700;29;45382;-58
2023/04/18 00:31:42;;;;;;;;;70.75;55.50;;;;;11.08;66.18;101676.09;4751706;29;45458;-58
2023/04/18 00:34:07;;;;;;;;;66.75;51.25;;;;;11.07;66.81;101679.03;4752488;29;45405;-58
2023/04/18 00:36:32;;;;;;;;;66.75;53.75;;;;;11.02;67.35;101676.00;4751073;29;45483;-57
2023/04/18 00:38:58;;;;;;;;;71.75;54.75;;;;;11.00;66.94;101672.59;4736809;29;45653;-58
2023/04/18 00:41:26;;;;;;;;;65.25;51.00;;;;;10.98;66.80;101673.66;4752740;29;46115;-58
2023/04/18 00:43:52;;;;;;;;;69.00;52.60;;;;;11.00;67.25;101664.34;4736056;29;45354;-56
2023/04/18 00:46:18;;;;;;;;;65.25;53.50;;;;;10.96;67.23;101667.50;4752235;29;45402;-57
2023/04/18 00:48:43;;;;;;;;;72.50;54.50;;;;;10.83;67.12;101640.69;4752943;29;45540;-58
2023/04/18 00:51:09;;;;;;;;;71.25;53.75;;;;;10.94;67.52;101660.50;4750323;29;47040;-57
2023/04/18 00:53:35;;;;;;;;;72.50;54.50;;;;;10.96;67.45;101661.13;4736368;29;45446;-59
2023/04/18 00:56:00;;;;;;;;;69.25;54.00;;;;;11.00;66.79;101651.47;4751507;29;45487;-58
2023/04/18 00:58:26;;;;;;;;;68.75;53.50;;;;;10.91;67.31;101642.50;4751414;29;45424;-57
2023/04/18 01:00:53;;;;;;;;;71.75;54.50;;;;;11.01;66.66;101655.94;4736231;29;46364;-59
2023/04/18 01:03:18;;;;;;;;;65.00;50.75;;;;;10.99;67.45;101652.50;4736091;29;45361;-57
2023/04/18 01:05:44;;;;;;;;;70.50;55.50;;;;;10.93;67.21;101634.03;4751999;29;45410;-58
2023/04/18 01:08:10;;;;;;;;;69.75;54.25;;;;;10.98;67.15;101654.41;4752531;29;45239;-57
2023/04/18 01:10:36;;;;;;;;;67.25;52.00;;;;;10.97;66.82;101646.38;4750850;29;46276;-56
2023/04/18 01:13:18;;;;;;;;;74.25;55.50;;;;;10.91;67.37;101653.47;4751655;29;45176;-58
2023/04/18 01:15:44;;;;;;;;;68.75;52.75;;;;;10.97;67.42;101652.72;4751851;29;45372;-58
2023/04/18 01:18:10;;;;;;;;;75.00;54.25;;;;;10.62;67.38;101583.81;4752289;29;45526;-57
2023/04/18 01:20:39;;;;;;;;;72.00;54.50;;;;;10.85;67.51;101630.38;4752144;29;45727;-57
2023/04/18 01:23:05;;;;;;;;;71.50;53.75;;;;;10.98;66.73;101634.31;4750145;29;45449;-58
2023/04/18 01:25:31;;;;;;;;;73.75;55.50;;;;;11.00;67.38;101642.38;4752064;29;45472;-58
2023/04/18 01:27:57;;;;;;;;;74.00;56.75;;;;;10.94;67.83;101646.75;4751988;29;45677;-57
2023/04/18 01:30:23;;;;;;;;;71.75;57.00;;;;;10.61;67.33;101597.75;4750414;29;46206;-58
2023/04/18 01:32:48;;;;;;;;;73.00;56.25;;;;;10.85;67.27;101638.59;4751902;29;45417;-57
2023/04/18 01:35:14;;;;;;;;;72.25;53.50;;;;;10.92;67.14;101630.47;4751977;29;45391;-58
2023/04/18 01:37:39;;;;;;;;;71.50;55.50;;;;;10.97;67.34;101636.25;4752177;29;45591;-58
2023/04/18 01:40:05;;;;;;;;;63.75;51.25;;;;;10.97;67.39;101625.25;4727151;29;46123;-59
2023/04/18 01:42:31;;;;;;;;;76.00;57.50;;;;;10.84;67.38;101603.13;4751792;29;45745;-58
2023/04/18 01:44:56;;;;;;;;;74.50;56.00;;;;;10.93;67.25;101623.06;4751750;29;45274;-59
2023/04/18 01:47:22;;;;;;;;;73.25;57.75;;;;;10.85;67.98;101629.53;4751828;29;45886;-58
2023/04/18 01:49:47;;;;;;;;;72.50;53.00;;;;;10.84;68.19;101625.09;4749843;29;45381;-60
2023/04/18 01:52:13;;;;;;;;;76.50;55.75;;;;;10.96;67.10;101625.44;4751247;29;45347;-56
2023/04/18 01:54:39;;;;;;;;;74.50;55.25;;;;;10.95;66.77;101626.47;4749661;29;45400;-58
2023/04/18 01:57:05;;;;;;;;;73.50;53.75;;;;;10.88;67.22;101618.16;4743689;29;45644;-58
2023/04/18 01:59:30;;;;;;;;;70.50;53.25;;;;;10.88;66.97;101631.88;4748665;29;47537;-58
2023/04/18 02:01:56;;;;;;;;;71.25;54.00;;;;;10.92;66.95;101621.34;4751047;29;45441;-58
2023/04/18 02:04:21;;;;;;;;;71.25;52.50;;;;;10.91;66.99;101625.16;4751177;29;45339;-57
2023/04/18 02:06:47;;;;;;;;;71.25;55.75;;;;;10.90;66.70;101624.31;4751666;29;45482;-60
2023/04/18 02:09:12;;;;;;;;;73.25;55.25;;;;;10.91;66.73;101625.16;4750667;29;46376;-57
2023/04/18 02:11:38;;;;;;;;;67.75;54.25;;;;;10.86;66.85;101617.50;4751248;29;45518;-56
2023/04/18 02:14:03;;;;;;;;;72.00;53.25;;;;;10.81;67.27;101619.97;4750553;29;45415;-58
2023/04/18 02:16:29;;;;;;;;;72.50;55.00;;;;;10.83;67.21;101623.34;4750170;29;45291;-57
2023/04/18 02:18:55;;;;;;;;;69.75;55.75;;;;;10.76;67.57;101623.28;4749435;29;46569;-54
2023/04/18 02:21:21;;;;;;;;;73.25;56.75;;;;;10.72;67.92;101616.47;4751299;29;45383;-58
2023/04/18 02:23:46;;;;;;;;;71.50;52.00;;;;;10.74;67.60;101622.63;4750724;29;45307;-55
2023/04/18 02:26:12;;;;;;;;;71.50;52.50;;;;;10.78;66.75;101618.44;4750829;29;45488;-55
2023/04/18 02:28:37;;;;;;;;;75.75;56.00;;;;;10.69;68.03;101612.22;4736673;29;45619;-56
2023/04/18 02:31:03;;;;;;;;;74.00;54.75;;;;;10.56;67.69;101584.59;4737407;29;45278;-57
2023/04/18 02:33:29;;;;;;;;;75.00;56.25;;;;;10.60;67.72;101620.75;4740338;29;45379;-63
2023/04/18 02:35:54;;;;;;;;;69.50;54.25;;;;;10.60;67.45;101618.00;4750626;29;45604;-56
2023/04/18 02:38:20;;;;;;;;;68.00;53.00;;;;;10.53;67.88;101615.19;4737916;29;45958;-59
2023/04/18 02:40:45;;;;;;;;;73.25;55.00;;;;;10.32;67.63;101575.59;4717048;29;45601;-59
2023/04/18 02:43:11;;;;;;;;;77.50;60.25;;;;;10.54;68.08;101614.13;4750978;29;45315;-58
2023/04/18 02:45:36;;;;;;;;;75.25;56.25;;;;;10.46;68.12;101611.50;4737682;29;45549;-58
2023/04/18 02:48:02;;;;;;;;;66.00;51.75;;;;;10.36;68.13;101595.28;4731331;30;45484;-59
2023/04/18 02:50:28;;;;;;;;;77.75;58.50;;;;;10.36;68.47;101598.84;4732388;30;45239;-58
2023/04/18 02:52:54;;;;;;;;;74.75;57.00;;;;;10.41;68.39;101596.41;4731748;30;45376;-59
2023/04/18 02:55:20;;;;;;;;;70.50;55.75;;;;;10.40;67.79;101602.94;4732834;30;45395;-60
2023/04/18 02:57:46;;;;;;;;;70.75;55.75;;;;;10.27;68.36;101576.19;4732559;30;46419;-57
2023/04/18 03:00:12;;;;;;;;;70.75;55.25;;;;;10.38;67.91;101602.28;4731559;30;45464;-57
2023/04/18 03:02:38;;;;;;;;;68.25;54.25;;;;;10.38;67.26;101594.06;4732812;29;45431;-57
2023/04/18 03:05:04;;;;;;;;;75.00;56.75;;;;;10.23;67.55;101571.22;4732783;30;45500;-58
2023/04/18 03:07:30;;;;;;;;;73.25;56.75;;;;;10.28;67.31;101582.50;4732743;29;45641;-56
2023/04/18 03:09:55;;;;;;;;;73.50;54.75;;;;;10.37;67.25;101595.09;4735630;29;45444;-58
2023/04/18 03:12:21;;;;;;;;;70.50;55.00;;;;;10.27;66.96;101583.53;4749173;29;45461;-57
2023/04/18 03:14:46;;;;;;;;;68.00;54.50;;;;;10.35;67.64;101593.59;4735957;30;45519;-58
2023/04/18 03:17:12;;;;;;;;;72.50;56.25;;;;;10.37;67.86;101602.47;4735682;30;46742;-59
2023/04/18 03:19:37;;;;;;;;;71.50;56.25;;;;;10.37;67.61;101591.50;4735427;30;45443;-57
2023/04/18 03:22:03;;;;;;;;;72.00;54.50;;;;;10.43;66.95;101591.63;4735649;30;45312;-58
2023/04/18 03:24:28;;;;;;;;;71.00;54.25;;;;;10.42;66.88;101591.78;4741660;29;45499;-59
2023/04/18 03:26:54;;;;;;;;;63.75;50.00;;;;;10.46;67.23;101593.13;4753216;29;46463;-58
2023/04/18 03:29:20;;;;;;;;;76.50;57.75;;;;;10.45;67.07;101599.66;4753404;29;45242;-59
2023/04/18 03:31:45;;;;;;;;;78.50;57.75;;;;;10.37;67.11;101596.97;4753219;29;45262;-58
2023/04/18 03:34:11;;;;;;;;;75.50;55.50;;;;;10.32;67.35;101594.81;4753501;29;45146;-58
2023/04/18 03:36:36;;;;;;;;;76.00;56.50;;;;;9.86;67.92;101517.13;4752947;29;46677;-59
2023/04/18 03:39:02;;;;;;;;;72.25;54.25;;;;;10.34;67.90;101589.13;4747402;29;46040;-58
2023/04/18 03:41:27;;;;;;;;;75.50;57.25;;;;;10.37;67.83;101591.50;4715233;30;45266;-58
2023/04/18 03:43:53;;;;;;;;;79.25;56.75;;;;;10.38;67.23;101585.81;4733051;29;45607;-59
2023/04/18 03:46:20;;;;;;;;;70.75;54.25;;;;;10.35;67.61;101597.16;4734866;30;46345;-59
2023/04/18 03:48:46;;;;;;;;;74.00;57.50;;;;;10.28;67.55;101591.59;4735009;29;45311;-58
2023/04/18 03:51:12;;;;;;;;;72.25;56.75;;;;;10.34;67.00;101592.72;4735059;30;45285;-58
2023/04/18 03:53:37;;;;;;;;;77.00;59.75;;;;;10.29;67.61;101593.28;4719667;30;45414;-59
2023/04/18 03:56:03;;;;;;;;;76.50;57.00;;;;;10.27;67.72;101597.25;4734629;30;45448;-57
2023/04/18 03:58:29;;;;;;;;;72.50;54.00;;;;;10.24;68.10;101590.25;4735242;30;45446;-57
2023/04/18 04:00:54;;;;;;;;;72.50;54.00;;;;;10.26;67.90;101585.41;4735069;30;45441;-59
2023/04/18 04:03:20;;;;;;;;;78.75;58.25;;;;;10.26;68.45;101584.59;4735284;29;45369;-59
2023/04/18 04:05:45;;;;;;;;;76.25;55.50;;;;;10.20;68.68;101586.22;4748274;29;45781;-57
2023/04/18 04:08:13;;;;;;;;;75.00;58.00;;;;;10.15;68.21;101589.50;4735243;30;45290;-57
2023/04/18 04:10:39;;;;;;;;;73.25;57.00;;;;;10.12;68.25;101567.94;4748885;29;45363;-59
2023/04/18 04:13:04;;;;;;;;;73.25;53.75;;;;;10.17;68.53;101570.09;4733692;30;45361;-58
2023/04/18 04:15:29;;;;;;;;;75.50;57.50;;;;;10.15;68.13;101578.53;4734737;30;46021;-58
2023/04/18 04:17:55;;;;;;;;;74.75;57.00;;;;;10.17;68.90;101581.06;4734919;30;45455;-59
2023/04/18 04:20:23;;;;;;;;;76.50;57.25;;;;;10.15;68.52;101578.53;4732299;30;45408;-55
2023/04/18 04:22:51;;;;;;;;;68.75;53.00;;;;;10.18;68.79;101580.03;4735281;29;45358;-57
2023/04/18 04:25:16;;;;;;;;;76.50;56.50;;;;;10.21;67.91;101579.69;4745576;29;45687;-57
2023/04/18 04:27:43;;;;;;;;;71.75;55.50;;;;;10.16;69.04;101574.72;4751075;29;45326;-60
2023/04/18 04:30:09;;;;;;;;;71.75;57.25;;;;;10.09;68.89;101578.44;4751606;29;45258;-57
2023/04/18 04:32:34;;;;;;;;;76.50;58.50;;;;;10.09;68.92;101573.78;4750044;29;45617;-56
2023/04/18 04:35:00;;;;;;;;;77.50;58.25;;;;;10.09;68.95;101571.03;4751026;29;46181;-57
2023/04/18 04:37:26;;;;;;;;;78.25;60.00;;;;;10.06;68.92;101576.06;4747731;29;45517;-58
2023/04/18 04:39:51;;;;;;;;;70.25;53.25;;;;;9.95;69.79;101574.63;4749491;29;45388;-59
2023/04/18 04:42:18;;;;;;;;;68.25;54.75;;;;;10.02;69.80;101572.84;4752545;29;45522;-57
2023/04/18 04:44:43;;;;;;;;;70.50;53.00;;;;;10.07;69.88;101572.25;4734507;29;46641;-58
2023/04/18 04:47:09;;;;;;;;;73.25;56.25;;;;;10.08;69.77;101583.06;4734664;29;45353;-58
2023/04/18 04:49:34;;;;;;;;;75.00;57.50;;;;;9.93;70.05;101552.03;4734389;29;45361;-59
2023/04/18 04:52:01;;;;;;;;;78.00;57.50;;;;;10.06;69.44;101571.44;4734547;29;45284;-58
2023/04/18 04:54:27;;;;;;;;;81.00;60.00;;;;;10.02;69.95;101581.94;4747570;29;47778;-61
2023/04/18 04:56:52;;;;;;;;;73.00;54.50;;;;;10.01;70.30;101582.09;4752236;29;45278;-56
2023/04/18 04:59:18;;;;;;;;;73.00;55.00;;;;;9.84;71.12;101574.06;4752051;29;45318;-60
2023/04/18 05:01:43;;;;;;;;;79.75;61.00;;;;;9.73;71.22;101582.72;4750669;29;45360;-59
2023/04/18 05:04:09;;;;;;;;;79.25;59.00;;;;;9.73;71.35;101585.47;4751767;29;45757;-57
2023/04/18 05:06:34;;;;;;;;;73.25;57.75;;;;;9.83;71.23;101575.06;4752034;29;45316;-58
2023/04/18 05:09:00;;;;;;;;;75.00;56.25;;;;;9.79;71.56;101579.25;4747478;29;45509;-57
2023/04/18 05:11:25;;;;;;;;;80.50;60.50;;;;;9.53;70.61;101541.28;4734205;30;45464;-56
2023/04/18 05:13:51;;;;;;;;;74.25;56.00;;;;;9.77;70.98;101578.59;4732698;29;48212;-58
2023/04/18 05:16:16;;;;;;;;;70.50;55.00;;;;;9.52;70.61;101523.13;4733910;29;45594;-57
2023/04/18 05:18:42;;;;;;;;;73.75;58.00;;;;;9.58;70.79;101538.84;4733878;29;45508;-57
2023/04/18 05:21:08;;;;;;;;;73.00;55.25;;;;;9.81;70.98;101577.16;4747651;29;45450;-57
2023/04/18 05:23:36;;;;;;;;;77.00;58.25;;;;;9.80;71.12;101580.09;4733619;29;46649;-58
2023/04/18 05:26:05;;;;;;;;;78.50;60.75;;;;;9.75;71.28;101567.81;4747859;29;45359;-56
2023/04/18 05:28:30;;;;;;;;;78.25;60.25;;;;;9.56;71.93;101555.47;4750023;29;45432;-57
2023/04/18 05:31:00;;;;;;;;;74.50;54.50;;;;;9.38;72.07;101531.13;4751508;29;45257;-60
2023/04/18 05:33:29;;;;;;;;;75.50;59.00;;;;;9.69;71.50;101581.38;4750194;29;46509;-58
2023/04/18 05:35:54;;;;;;;;;80.00;59.00;;;;;9.75;71.44;101586.13;4749946;29;46144;-58
2023/04/18 05:38:20;;;;;;;;;79.75;59.00;;;;;9.71;71.60;101585.66;4751191;29;45448;-56
2023/04/18 05:40:45;;;;;;;;;81.25;58.75;;;;;9.67;71.53;101581.59;4750209;29;45363;-60
2023/04/18 05:43:11;;;;;;;;;76.75;58.00;;;;;9.72;71.13;101578.28;4750162;29;46815;-59
2023/04/18 05:45:36;;;;;;;;;74.00;56.75;;;;;9.87;71.30;101592.88;4751103;29;45400;-58
2023/04/18 05:48:02;;;;;;;;;76.25;58.50;;;;;9.94;70.49;101587.50;4751417;29;45373;-59
2023/04/18 05:50:27;;;;;;;;;77.25;58.00;;;;;9.97;70.20;101586.28;4749879;29;45522;-58
2023/04/18 05:52:53;;;;;;;;;72.00;56.00;;;;;10.06;70.64;101587.03;4749635;29;46698;-57
2023/04/18 05:55:19;;;;;;;;;74.75;57.50;;;;;9.92;70.23;101570.38;4751234;29;45529;-58
2023/04/18 05:57:44;;;;;;;;;79.50;60.75;;;;;10.10;70.36;101591.97;4749833;29;45431;-58
2023/04/18 06:00:10;;;;;;;;;72.75;55.50;;;;;10.10;69.31;101594.72;4750176;29;45447;-58
2023/04/18 06:02:36;;;;;;;;;74.25;56.75;;;;;10.06;70.44;101587.88;4751057;29;45751;-57
2023/04/18 06:05:02;;;;;;;;;75.50;58.00;;;;;10.07;69.47;101595.06;4750958;29;45377;-59
2023/04/18 06:07:27;;;;;;;;;75.50;57.25;;;;;9.96;70.56;101590.91;4718200;29;45921;-58
2023/04/18 06:09:53;;;;;;;;;69.00;54.25;;;;;10.03;69.98;101585.50;4739567;29;45202;-58
2023/04/18 06:12:19;;;;;;;;;77.00;59.50;;;;;10.08;69.64;101595.94;4743410;29;47743;-57
2023/04/18 06:14:44;;;;;;;;;70.00;55.00;;;;;9.84;70.06;101564.97;4750798;29;45193;-60
2023/04/18 06:17:11;;;;;;;;;76.75;57.00;;;;;10.08;69.85;101590.44;4750489;29;45503;-57
2023/04/18 06:19:38;;;;;;;;;72.75;57.00;;;;;10.11;69.19;101588.19;4746213;29;45537;-60
2023/04/18 06:22:04;;;;;;;;;76.00;59.00;;;;;10.19;69.84;101594.63;4731417;30;47353;-60
2023/04/18 06:24:30;;;;;;;;;74.25;56.25;;;;;10.19;69.23;101598.19;4745446;29;45516;-58
2023/04/18 06:26:56;;;;;;;;;73.75;55.50;;;;;9.88;69.39;101556.19;4750951;29;45346;-57
2023/04/18 06:29:22;;;;;;;;;75.25;54.75;;;;;10.16;68.89;101595.84;4743891;29;45521;-58
2023/04/18 06:31:49;;;;;;;;;75.50;56.25;;;;;10.10;69.05;101577.38;4739334;29;46190;-57
2023/04/18 06:34:15;;;;;;;;;69.75;53.25;;;;;10.16;69.45;101593.94;4717566;30;45392;-55
2023/04/18 06:36:40;;;;;;;;;63.50;49.00;;;;;10.22;69.09;101596.97;4731568;30;45374;-56
2023/04/18 06:39:06;;;;;;;;;71.50;55.50;;;;;10.14;68.73;101587.78;4733160;30;45309;-57
2023/04/18 06:41:32;;;;;;;;;71.75;56.25;;;;;10.17;68.74;101592.06;4746244;29;45909;-56
2023/04/18 06:43:57;;;;;;;;;77.00;57.50;;;;;10.19;68.70;101592.72;4735753;30;45944;-57
2023/04/18 06:46:22;;;;;;;;;78.50;56.00;;;;;10.26;68.84;101595.56;4734580;30;45383;-56
2023/04/18 06:48:49;;;;;;;;;71.25;54.50;;;;;10.21;68.60;101587.91;4736651;29;45431;-56
2023/04/18 06:51:15;;;;;;;;;74.75;56.25;;;;;10.02;68.97;101560.00;4751580;29;45502;-56
2023/04/18 06:53:40;;;;;;;;;76.75;54.00;;;;;10.15;69.04;101584.00;4753698;29;45317;-54
2023/04/18 06:56:06;;;;;;;;;73.50;58.25;;;;;10.14;69.22;101586.97;4727240;30;45474;-57
2023/04/18 06:58:31;;;;;;;;;72.75;55.25;;;;;10.27;68.80;101594.50;4753626;29;45396;-57
2023/04/18 07:00:57;;;;;;;;;72.50;55.75;;;;;10.34;68.30;101592.72;4742888;29;45968;-56
2023/04/18 07:03:22;;;;;;;;;76.75;57.50;;;;;10.29;69.07;101584.19;4743430;29;45387;-55
2023/04/18 07:05:49;;;;;;;;;77.25;58.75;;;;;10.26;68.37;101587.34;4736149;30;45361;-56
2023/04/18 07:08:15;;;;;;;;;73.50;54.50;;;;;10.20;68.68;101560.66;4735185;30;45333;-58
2023/04/18 07:10:41;;;;;;;;;73.25;55.25;;;;;10.54;68.09;101586.69;4730678;29;46321;-60
2023/04/18 07:13:06;;;;;;;;;77.25;59.50;;;;;10.51;67.82;101578.84;4742843;29;45465;-58
2023/04/18 07:15:34;;;;;;;;;77.75;58.00;;;;;10.57;68.13;101597.28;4734690;30;45402;-57
2023/04/18 07:17:59;;;;;;;;;72.75;57.50;;;;;10.55;68.33;101589.25;4722577;29;45568;-61
2023/04/18 07:20:24;;;;;;;;;76.00;57.50;;;;;10.16;67.34;101521.78;4752174;29;46368;-60
2023/04/18 07:22:50;;;;;;;;;69.25;51.75;;;;;10.62;67.45;101583.81;4742036;29;45332;-59
2023/04/18 07:25:15;;;;;;;;;76.75;56.50;;;;;10.70;67.70;101589.22;4739451;29;45478;-59
2023/04/18 07:27:41;;;;;;;;;72.00;55.25;;;;;10.65;67.47;101590.81;4753707;29;45394;-59
2023/04/18 07:30:07;;;;;;;;;78.75;56.00;;;;;10.74;67.67;101588.81;4753356;29;46049;-60
2023/04/18 07:32:33;;;;;;;;;80.50;60.00;;;;;10.80;67.01;101579.81;4753804;29;45391;-57
2023/04/18 07:34:58;;;;;;;;;79.00;60.00;;;;;10.81;67.27;101578.78;4737491;29;45370;-57
2023/04/18 07:37:24;;;;;;;;;68.25;55.75;;;;;10.85;66.71;101591.91;4752553;29;45338;-60
2023/04/18 07:39:50;;;;;;;;;76.00;58.75;;;;;10.94;66.89;101591.81;4753544;29;46103;-59
2023/04/18 07:42:15;;;;;;;;;72.25;56.00;;;;;11.02;66.82;101588.09;4753519;29;45390;-60
2023/04/18 07:44:41;;;;;;;;;68.25;56.25;;;;;11.02;65.56;101575.22;4737033;29;45301;-61
2023/04/18 07:47:09;;;;;;;;;76.75;56.75;;;;;11.03;65.59;101576.91;4753673;29;45532;-60
2023/04/18 07:49:35;;;;;;;;;76.50;57.50;;;;;11.08;66.15;101581.81;4752913;29;47960;-59
2023/04/18 07:52:01;;;;;;;;;74.75;56.25;;;;;11.03;66.08;101581.53;4752921;29;45602;-61
2023/04/18 07:54:26;;;;;;;;;66.25;53.50;;;;;11.11;65.17;101578.69;4748873;29;45458;-60
2023/04/18 07:56:52;;;;;;;;;73.75;57.00;;;;;11.17;65.43;101577.91;4735714;29;45287;-60
2023/04/18 07:59:17;;;;;;;;;62.50;53.00;;;;;11.07;65.11;101561.75;4733550;30;46628;-60
2023/04/18 08:01:43;;;;;;;;;76.75;57.00;;;;;11.07;65.86;101555.41;4734860;30;45324;-61
2023/04/18 08:04:08;;;;;;;;;68.00;53.75;;;;;11.12;65.25;101561.16;4735242;30;45399;-59
2023/04/18 08:06:34;;;;;;;;;75.00;56.75;;;;;11.19;65.64;101567.56;4748639;29;45401;-61
2023/04/18 08:09:03;;;;;;;;;75.00;56.50;;;;;11.11;64.97;101576.78;4732168;29;46662;-61
2023/04/18 08:11:29;;;;;;;;;71.00;56.00;;;;;11.03;65.26;101570.56;4719408;29;45617;-60
2023/04/18 08:13:54;;;;;;;;;72.50;56.25;;;;;11.08;65.53;101573.56;4732541;29;45404;-61
2023/04/18 08:16:20;;;;;;;;;74.25;58.00;;;;;11.07;64.59;101566.38;4734604;30;45572;-59
2023/04/18 08:18:45;;;;;;;;;76.25;58.50;;;;;11.03;64.72;101554.06;4748387;29;48032;-60
2023/04/18 08:21:11;;;;;;;;;75.75;57.00;;;;;11.07;64.71;101574.63;4733753;30;45369;-59
2023/04/18 08:23:37;;;;;;;;;64.25;51.00;;;;;11.11;64.86;101567.72;4733643;30;45419;-59
2023/04/18 08:26:02;;;;;;;;;77.75;56.75;;;;;10.96;65.11;101524.66;4741002;29;45510;-61
2023/04/18 08:28:28;;;;;;;;;69.25;51.50;;;;;11.23;65.47;101563.41;4751123;29;47855;-61
2023/04/18 08:30:55;;;;;;;;;75.00;56.25;;;;;11.26;64.75;101553.88;4752742;29;45322;-59
2023/04/18 08:33:21;;;;;;;;;73.75;56.50;;;;;11.02;64.50;101524.91;4752627;29;45460;-60
2023/04/18 08:35:47;;;;;;;;;76.00;60.00;;;;;10.91;64.28;101515.28;4751423;29;45479;-58
2023/04/18 08:38:12;;;;;;;;;72.75;56.00;;;;;11.20;63.94;101540.97;4752547;29;45718;-58
2023/04/18 08:40:38;;;;;;;;;72.75;54.50;;;;;11.27;63.86;101547.38;4720807;29;45511;-60
2023/04/18 08:43:06;;;;;;;;;74.00;55.00;;;;;11.28;64.16;101550.94;4746244;29;45694;-60
2023/04/18 08:45:33;;;;;;;;;74.75;54.00;;;;;11.14;64.08;101520.59;4749114;29;45547;-60
2023/04/18 08:48:00;;;;;;;;;69.00;55.25;;;;;11.33;64.35;101541.09;4735209;29;46198;-60
2023/04/18 08:50:26;;;;;;;;;72.50;55.00;;;;;11.42;63.73;101540.94;4748621;29;45600;-58
2023/04/18 08:52:51;;;;;;;;;64.50;46.25;;;;;10.84;63.09;101435.59;4747748;29;45610;-59
2023/04/18 08:55:18;;;;;;;;;71.75;57.50;;;;;11.57;63.17;101541.69;4728669;29;46130;-59
2023/04/18 08:57:43;;;;;;;;;74.50;55.75;;;;;11.66;62.58;101539.66;4751342;29;45430;-60
2023/04/18 09:00:10;;;;;;;;;69.50;53.00;;;;;11.64;61.90;101522.50;4749728;29;45548;-61
2023/04/18 09:02:43;;;;;;;;;69.25;54.25;;;;;11.86;62.18;101545.31;4750309;29;45403;-61
2023/04/18 09:05:17;;;;;;;;;73.75;55.00;;;;;11.93;61.68;101534.34;4732734;29;45397;-60
2023/04/18 09:07:43;;;;;;;;;70.50;55.00;;;;;12.04;61.16;101530.19;4733639;29;46351;-60
2023/04/18 09:10:09;;;;;;;;;64.50;50.25;;;;;12.09;60.94;101530.44;4740632;29;45541;-59
2023/04/18 09:12:51;;;;;;;;;72.75;54.75;;;;;12.12;61.11;101530.03;4750127;29;45420;-60
2023/04/18 09:15:19;;;;;;;;;71.25;54.25;;;;;12.08;60.53;101520.50;4743134;29;45530;-60
2023/04/18 09:17:49;;;;;;;;;68.25;53.75;;;;;12.14;60.82;101527.94;4732346;29;45392;-60
2023/04/18 09:20:36;;;;;;;;;70.60;53.40;;;;;12.25;60.54;101529.25;4731731;30;45369;-59
2023/04/18 09:23:09;;;;;;;;;66.25;53.50;;;;;12.32;60.03;101524.63;4752919;29;45842;-61
2023/04/18 09:25:37;;;;;;;;;67.75;52.50;;;;;12.38;60.20;101522.13;4720656;29;45913;-61
2023/04/18 09:28:25;;;;;;;;;73.25;55.50;;;;;12.05;59.12;101452.09;4744403;29;47261;-60
2023/04/18 09:30:51;;;;;;;;;70.00;52.50;;;;;12.36;58.73;101488.44;4750348;29;45383;-58
2023/04/18 09:33:17;;;;;;;;;61.00;49.00;;;;;12.57;58.51;101515.84;4750745;29;45419;-61
2023/04/18 09:35:43;;;;;;;;;70.00;53.25;;;;;12.35;58.25;101484.84;4734900;29;45540;-61
2023/04/18 09:38:09;;;;;;;;;66.50;50.50;;;;;12.52;58.55;101509.25;4749341;29;46334;-55
2023/04/18 09:40:34;;;;;;;;;70.00;50.75;;;;;12.60;59.18;101500.81;4691710;29;45716;-59
2023/04/18 09:43:00;;;;;;;;;63.00;50.00;;;;;12.76;58.09;101505.09;4739429;29;45378;-57
2023/04/18 09:45:25;;;;;;;;;62.00;49.75;;;;;12.85;57.97;101500.22;4746914;29;45361;-62
2023/04/18 09:47:51;;;;;;;;;62.50;49.25;;;;;12.74;57.98;101468.63;4750365;29;45928;-61
2023/04/18 09:50:19;;;;;;;;;64.40;51.00;;;;;13.04;57.48;101495.81;4749088;29;45846;-60
2023/04/18 09:52:45;;;;;;;;;63.00;50.75;;;;;13.14;57.21;101496.25;4743309;29;45622;-57
2023/04/18 09:55:14;;;;;;;;;62.75;48.75;;;;;13.11;57.30;101493.91;4748183;29;45521;-61
2023/04/18 09:57:43;;;;;;;;;60.00;48.75;;;;;13.15;57.38;101497.94;4748185;29;46472;-61
2023/04/18 10:00:19;;;;;;;;;68.60;51.60;;;;;13.24;56.89;101486.72;4749204;29;45511;-61
2023/04/18 10:02:58;;;;;;;;;63.60;49.00;;;;;13.26;56.25;101470.81;4750154;29;45783;-60
2023/04/18 10:05:30;;;;;;;;;66.25;50.50;;;;;13.26;56.46;101460.66;4748728;29;45384;-60
2023/04/18 10:07:55;;;;;;;;;63.00;49.50;;;;;13.42;56.25;101481.44;4748769;29;45408;-60
2023/04/18 10:10:21;;;;;;;;;62.75;48.00;;;;;13.46;54.58;101478.25;4719868;30;45346;-60
2023/04/18 10:12:47;;;;;;;;;64.25;49.00;;;;;13.47;55.01;101468.91;4746460;29;45635;-57
2023/04/18 10:15:14;;;;;;;;;60.00;48.00;;;;;13.66;55.29;101469.97;4731868;30;45687;-57
2023/04/18 10:17:42;;;;;;;;;62.75;48.50;;;;;13.50;54.21;101430.72;4731870;29;46127;-59
2023/04/18 10:20:09;;;;;;;;;64.40;51.20;;;;;13.69;53.54;101478.66;4717244;30;45518;-56
2023/04/18 10:22:35;;;;;;;;;58.40;47.20;;;;;13.72;53.23;101468.25;4726756;29;45456;-58
2023/04/18 10:25:01;;;;;;;;;62.50;47.00;;;;;13.81;53.29;101464.19;4748465;29;45642;-59
2023/04/18 10:27:48;;;;;;;;;60.50;46.50;;;;;13.88;53.68;101456.75;4749230;29;45519;-59
2023/04/18 10:30:17;;;;;;;;;58.40;47.20;;;;;13.92;52.96;101458.00;4748723;29;45443;-60
2023/04/18 10:32:44;;;;;;;;;60.00;48.40;;;;;14.04;53.95;101458.19;4734044;29;45950;-60
2023/04/18 10:35:10;;;;;;;;;60.00;48.40;;;;;14.15;52.86;101450.28;4748976;29;45495;-61
2023/04/18 10:37:51;;;;;;;;;63.00;49.75;;;;;14.21;52.45;101450.25;4733053;29;45421;-60
2023/04/18 10:40:33;;;;;;;;;57.60;45.20;;;;;14.22;53.01;101437.31;4721610;29;45499;-59
2023/04/18 10:42:59;;;;;;;;;54.60;43.60;;;;;14.33;52.45;101439.38;4745355;29;45390;-61
2023/04/18 10:45:28;;;;;;;;;64.75;49.50;;;;;14.34;52.43;101442.97;4743991;29;45379;-60
2023/04/18 10:48:31;;;;;;;;;62.00;49.00;;;;;14.40;50.78;101425.53;4749464;29;45803;-60
2023/04/18 10:51:17;;;;;;;;;56.80;43.00;;;;;14.55;50.09;101427.13;4692925;30;46108;-60
2023/04/18 10:53:48;;;;;;;;;56.00;44.60;;;;;14.62;51.79;101416.91;4728016;30;45388;-59
2023/04/18 10:56:13;;;;;;;;;59.75;46.75;;;;;14.49;51.81;101409.53;4732025;30;45641;-62
2023/04/18 10:58:40;;;;;;;;;60.50;47.75;;;;;14.62;51.05;101416.91;4730037;30;45647;-61
2023/04/18 11:01:05;;;;;;;;;61.40;48.20;;;;;14.67;50.05;101411.53;4731855;30;45442;-61
2023/04/18 11:03:34;;;;;;;;;60.50;46.00;;;;;14.62;50.69;101403.94;4733382;29;45886;-61
2023/04/18 11:06:01;;;;;;;;;59.60;46.20;;;;;14.70;51.17;101404.72;4731316;30;45721;-61